createdAt,value
2022-12-25T00:03:53.652Z,7.70
2022-12-25T00:07:56.546Z,7.70
2022-12-25T00:12:00.716Z,7.70
2022-12-25T00:16:07.518Z,7.60
2022-12-25T00:20:11.087Z,7.60
2022-12-25T00:24:13.916Z,7.60
2022-12-25T00:28:18.068Z,7.60
2022-12-25T00:32:20.805Z,7.60
2022-12-25T00:36:24.016Z,7.60
2022-12-25T00:40:26.796Z,7.60
2022-12-25T00:44:31.195Z,7.50
2022-12-25T00:48:34.335Z,7.50
2022-12-25T00:52:37.251Z,7.50
2022-12-25T00:56:42.004Z,7.40
2022-12-25T01:00:46.118Z,7.30
2022-12-25T01:04:50.852Z,7.20
2022-12-25T01:09:11.726Z,7.10
2022-12-25T01:13:22.887Z,7.00
2022-12-25T01:17:27.170Z,6.80
2022-12-25T01:21:29.951Z,6.60
2022-12-25T01:25:32.742Z,6.40
2022-12-25T01:29:35.581Z,6.30
2022-12-25T01:33:39.931Z,6.20
2022-12-25T01:37:42.749Z,6.10
2022-12-25T01:41:45.545Z,6.00
2022-12-25T01:45:49.465Z,5.90
2022-12-25T01:49:53.810Z,5.80
2022-12-25T01:53:57.811Z,5.70
2022-12-25T01:58:00.660Z,5.60
2022-12-25T02:02:04.225Z,5.70
2022-12-25T02:06:09.666Z,5.70
2022-12-25T02:10:13.381Z,5.80
2022-12-25T02:14:16.230Z,5.80
2022-12-25T02:18:30.531Z,6.00
2022-12-25T02:22:45.562Z,6.10
2022-12-25T02:27:01.351Z,6.10
2022-12-25T02:31:13.179Z,6.20
2022-12-25T02:35:19.944Z,6.40
2022-12-25T02:39:45.281Z,6.50
2022-12-25T02:44:06.191Z,6.50
2022-12-25T02:48:29.969Z,6.60
2022-12-25T02:52:50.790Z,6.70
2022-12-25T02:57:13.022Z,6.80
2022-12-25T03:01:37.343Z,6.90
2022-12-25T03:06:01.696Z,6.90
2022-12-25T03:10:26.069Z,7.00
2022-12-25T03:14:46.452Z,7.00
2022-12-25T03:18:49.289Z,7.10
2022-12-25T03:23:12.438Z,7.10
2022-12-25T03:27:15.209Z,7.10
2022-12-25T03:31:23.036Z,7.30
2022-12-25T03:35:33.428Z,7.40
2022-12-25T03:40:03.857Z,7.50
2022-12-25T03:44:36.959Z,7.60
2022-12-25T03:49:01.490Z,7.90
2022-12-25T03:53:26.405Z,8.00
2022-12-25T03:57:51.504Z,8.00
2022-12-25T04:02:11.811Z,8.10
2022-12-25T04:06:32.119Z,8.20
2022-12-25T04:10:52.519Z,8.30
2022-12-25T04:15:14.260Z,8.40
2022-12-25T04:19:39.291Z,8.40
2022-12-25T04:24:02.229Z,8.30
2022-12-25T04:28:22.586Z,8.30
2022-12-25T04:32:44.616Z,8.40
2022-12-25T04:36:47.384Z,8.40
2022-12-25T04:40:50.133Z,8.50
2022-12-25T04:44:53.020Z,8.50
2022-12-25T04:48:57.114Z,8.60
2022-12-25T04:52:59.960Z,8.60
2022-12-25T04:57:02.776Z,8.50
2022-12-25T05:01:06.015Z,8.60
2022-12-25T05:05:10.542Z,8.60
2022-12-25T05:09:13.330Z,8.60
2022-12-25T05:13:16.197Z,8.60
2022-12-25T05:17:19.079Z,8.70
2022-12-25T05:21:23.222Z,8.70
2022-12-25T05:25:26.030Z,8.70
2022-12-25T05:29:29.011Z,8.70
2022-12-25T05:33:31.801Z,8.70
2022-12-25T05:37:35.951Z,8.80
2022-12-25T05:41:38.715Z,8.80
2022-12-25T05:45:41.520Z,8.80
2022-12-25T05:49:44.478Z,8.70
2022-12-25T05:53:48.689Z,8.70
2022-12-25T05:57:51.500Z,8.70
2022-12-25T06:01:54.381Z,8.70
2022-12-25T06:05:57.295Z,8.80
2022-12-25T06:10:01.438Z,8.80
2022-12-25T06:14:04.295Z,8.80
2022-12-25T06:18:07.186Z,8.80
2022-12-25T06:22:09.967Z,8.90
2022-12-25T06:26:18.595Z,8.90
2022-12-25T06:30:21.510Z,8.90
2022-12-25T06:34:24.463Z,8.90
2022-12-25T06:38:27.228Z,8.90
2022-12-25T06:42:31.297Z,8.90
2022-12-25T06:46:34.120Z,8.90
2022-12-25T06:50:37.072Z,8.90
2022-12-25T06:54:39.794Z,8.80
2022-12-25T06:58:45.309Z,8.90
2022-12-25T07:02:50.660Z,8.80
2022-12-25T07:07:08.363Z,8.80
2022-12-25T07:11:12.222Z,8.80
2022-12-25T07:15:16.541Z,8.70
2022-12-25T07:19:19.413Z,8.70
2022-12-25T07:23:22.318Z,8.70
2022-12-25T07:27:25.265Z,8.80
2022-12-25T07:31:29.340Z,8.80
2022-12-25T07:35:32.110Z,8.90
2022-12-25T07:39:35.350Z,8.90
2022-12-25T07:43:38.443Z,8.90
2022-12-25T07:47:45.662Z,8.90
2022-12-25T07:51:48.476Z,8.80
2022-12-25T07:55:57.821Z,8.90
2022-12-25T08:00:00.573Z,8.90
2022-12-25T08:04:20.207Z,8.80
2022-12-25T08:08:22.990Z,8.80
2022-12-25T08:12:32.066Z,8.80
2022-12-25T08:16:34.941Z,8.90
2022-12-25T08:20:39.107Z,8.90
2022-12-25T08:24:41.885Z,8.90
2022-12-25T08:28:44.731Z,9.00
2022-12-25T08:32:47.507Z,9.10
2022-12-25T08:36:51.756Z,9.10
2022-12-25T08:40:58.705Z,9.40
2022-12-25T08:45:01.536Z,9.50
2022-12-25T08:49:04.399Z,9.60
2022-12-25T08:53:08.769Z,9.60
2022-12-25T08:57:11.699Z,9.60
2022-12-25T09:01:15.433Z,9.60
2022-12-25T09:05:18.353Z,9.60
2022-12-25T09:09:22.492Z,9.60
2022-12-25T09:13:25.304Z,9.60
2022-12-25T09:17:28.058Z,9.60
2022-12-25T09:21:30.882Z,9.60
2022-12-25T09:25:34.940Z,9.60
2022-12-25T09:29:38.937Z,9.60
2022-12-25T09:33:41.719Z,9.60
2022-12-25T09:37:44.581Z,9.60
2022-12-25T09:41:56.521Z,9.60
2022-12-25T09:46:01.245Z,9.60
2022-12-25T09:50:08.628Z,9.50
2022-12-25T09:54:19.203Z,9.50
2022-12-25T09:58:23.475Z,9.50
2022-12-25T10:02:47.013Z,9.50
2022-12-25T10:07:03.051Z,9.60
2022-12-25T10:11:13.181Z,9.60
2022-12-25T10:15:30.432Z,9.70
2022-12-25T10:19:44.603Z,9.70
2022-12-25T10:23:50.593Z,9.70
2022-12-25T10:27:57.849Z,9.70
2022-12-25T10:32:02.260Z,9.70
2022-12-25T10:36:06.810Z,9.70
2022-12-25T10:40:28.779Z,9.60
2022-12-25T10:44:33.094Z,9.60
2022-12-25T10:48:41.565Z,9.60
2022-12-25T10:52:55.882Z,9.60
2022-12-25T10:57:01.125Z,9.60
2022-12-25T11:01:07.542Z,9.60
2022-12-25T11:05:16.307Z,9.50
2022-12-25T11:09:19.082Z,9.50
2022-12-25T11:13:25.078Z,9.50
2022-12-25T11:17:28.810Z,9.50
2022-12-25T11:21:34.779Z,9.50
2022-12-25T11:25:37.733Z,9.50
2022-12-25T11:29:45.950Z,9.60
2022-12-25T11:33:54.495Z,9.60
2022-12-25T11:37:58.564Z,9.60
2022-12-25T11:42:08.250Z,9.60
2022-12-25T11:46:16.315Z,9.70
2022-12-25T11:50:24.422Z,9.70
2022-12-25T11:54:34.695Z,9.70
2022-12-25T11:58:40.580Z,9.70
2022-12-25T12:02:49.092Z,9.80
2022-12-25T12:06:57.289Z,9.80
2022-12-25T12:11:18.953Z,9.80
2022-12-25T12:15:29.403Z,9.80
2022-12-25T12:19:34.607Z,9.80
2022-12-25T12:23:49.869Z,9.90
2022-12-25T12:28:04.585Z,9.90
2022-12-25T12:32:28.399Z,9.90
2022-12-25T12:36:37.060Z,9.90
2022-12-25T12:40:44.050Z,9.90
2022-12-25T12:44:49.696Z,9.90
2022-12-25T12:48:55.407Z,9.90
2022-12-25T12:52:59.068Z,9.90
2022-12-25T12:57:03.225Z,9.90
2022-12-25T13:01:24.246Z,9.90
2022-12-25T13:05:37.145Z,9.90
2022-12-25T13:09:53.985Z,9.90
2022-12-25T13:14:00.311Z,10.00
2022-12-25T13:18:08.219Z,10.00
2022-12-25T13:22:25.083Z,9.90
2022-12-25T13:26:28.356Z,10.00
2022-12-25T13:30:31.180Z,10.00
2022-12-25T13:34:38.212Z,10.00
2022-12-25T13:38:45.109Z,10.00
2022-12-25T13:42:50.171Z,10.00
2022-12-25T13:46:53.195Z,10.00
2022-12-25T13:51:02.414Z,10.10
2022-12-25T13:55:12.198Z,10.10
2022-12-25T13:59:17.864Z,10.10
2022-12-25T14:03:23.751Z,10.10
2022-12-25T14:07:28.906Z,10.10
2022-12-25T14:11:33.128Z,10.10
2022-12-25T14:15:37.793Z,10.10
2022-12-25T14:19:40.557Z,10.20
2022-12-25T14:23:47.774Z,10.20
2022-12-25T14:27:51.594Z,10.20
2022-12-25T14:31:55.936Z,10.30
2022-12-25T14:36:00.245Z,10.30
2022-12-25T14:40:21.523Z,10.20
2022-12-25T14:44:33.299Z,10.20
2022-12-25T14:48:36.062Z,10.30
2022-12-25T14:52:43.648Z,10.30
2022-12-25T14:56:50.252Z,10.30
2022-12-25T15:00:56.034Z,10.30
2022-12-25T15:04:58.847Z,10.20
2022-12-25T15:09:03.274Z,10.20
2022-12-25T15:13:07.602Z,10.20
2022-12-25T15:17:21.537Z,10.20
2022-12-25T15:21:27.131Z,10.20
2022-12-25T15:25:30.882Z,10.20
2022-12-25T15:33:59.625Z,10.20
2022-12-25T15:38:02.442Z,10.20
2022-12-25T15:42:12.999Z,10.20
2022-12-25T15:46:17.108Z,10.20
2022-12-25T15:50:20.752Z,10.20
2022-12-25T15:54:23.531Z,10.20
2022-12-25T15:58:26.328Z,10.20
2022-12-25T16:02:30.579Z,10.20
2022-12-25T16:06:33.425Z,10.20
2022-12-25T16:10:38.984Z,10.20
2022-12-25T16:14:43.373Z,10.30
2022-12-25T16:18:48.022Z,10.30
2022-12-25T16:22:50.824Z,10.20
2022-12-25T16:26:53.620Z,10.20
2022-12-25T16:30:56.399Z,10.20
2022-12-25T16:35:00.544Z,10.20
2022-12-25T16:39:03.533Z,10.30
2022-12-25T16:43:06.290Z,10.30
2022-12-25T16:47:09.091Z,10.30
2022-12-25T16:51:15.422Z,10.30
2022-12-25T16:55:18.350Z,10.30
2022-12-25T16:59:21.128Z,10.30
2022-12-25T17:03:24.485Z,10.40
2022-12-25T17:07:28.666Z,10.40
2022-12-25T17:11:32.331Z,10.50
2022-12-25T17:15:35.117Z,10.50
2022-12-25T17:19:37.981Z,10.70
2022-12-25T17:23:43.012Z,10.70
2022-12-25T17:27:49.326Z,10.80
2022-12-25T17:31:52.655Z,10.80
2022-12-25T17:36:01.862Z,10.80
2022-12-25T17:40:09.487Z,10.90
2022-12-25T17:44:12.434Z,11.00
2022-12-25T17:48:15.221Z,11.00
2022-12-25T17:52:17.999Z,11.00
2022-12-25T17:56:23.645Z,11.10
2022-12-25T18:00:26.685Z,11.10
2022-12-25T18:04:29.449Z,11.10
2022-12-25T18:08:38.640Z,11.10
2022-12-25T18:12:44.240Z,11.10
2022-12-25T18:16:47.140Z,11.20
2022-12-25T18:20:50.072Z,11.30
2022-12-25T18:24:52.835Z,11.40
2022-12-25T18:28:57.369Z,11.40
2022-12-25T18:33:00.142Z,11.50
2022-12-25T18:37:03.788Z,11.60
2022-12-25T18:41:07.709Z,11.70
2022-12-25T18:45:13.848Z,11.90
2022-12-25T18:49:16.639Z,11.80
2022-12-25T18:53:19.449Z,11.90
2022-12-25T18:57:22.220Z,11.90
2022-12-25T19:01:26.873Z,11.90
2022-12-25T19:05:29.721Z,12.00
2022-12-25T19:09:32.762Z,12.00
2022-12-25T19:13:35.785Z,12.00
2022-12-25T19:17:40.001Z,12.00
2022-12-25T19:21:42.775Z,12.10
2022-12-25T19:25:45.550Z,12.10
2022-12-25T19:29:48.334Z,12.20
2022-12-25T19:33:52.656Z,12.30
2022-12-25T19:37:55.424Z,12.20
2022-12-25T19:41:58.191Z,12.10
2022-12-25T19:46:02.342Z,12.30
2022-12-25T19:50:07.738Z,12.30
2022-12-25T19:54:13.298Z,12.30
2022-12-25T19:58:16.107Z,12.30
2022-12-25T20:02:19.016Z,12.30
2022-12-25T20:06:26.180Z,12.30
2022-12-25T20:10:29.354Z,12.30
2022-12-25T20:14:32.237Z,12.40
2022-12-25T20:18:35.065Z,12.40
2022-12-25T20:22:39.208Z,12.40
2022-12-25T20:26:45.346Z,12.40
2022-12-25T20:30:51.015Z,12.40
2022-12-25T20:34:53.794Z,12.40
2022-12-25T20:38:58.173Z,12.40
2022-12-25T20:43:00.915Z,12.40
2022-12-25T20:47:03.716Z,12.40
2022-12-25T20:51:08.250Z,12.40
2022-12-25T20:55:13.922Z,12.30
2022-12-25T20:59:16.839Z,12.30
2022-12-25T21:03:19.826Z,12.30
2022-12-25T21:07:22.710Z,12.30
2022-12-25T21:11:27.373Z,12.30
2022-12-25T21:15:30.133Z,12.20
2022-12-25T21:19:32.887Z,12.10
2022-12-25T21:23:37.187Z,12.00
2022-12-25T21:27:41.254Z,12.00
2022-12-25T21:32:01.514Z,11.90
2022-12-25T21:36:08.357Z,11.80
2022-12-25T21:40:16.334Z,11.70
2022-12-25T21:44:20.815Z,11.70
2022-12-25T21:48:23.596Z,11.60
2022-12-25T21:52:26.341Z,11.50
2022-12-25T21:56:30.884Z,11.50
2022-12-25T22:00:35.007Z,11.50
2022-12-25T22:04:38.921Z,11.40
2022-12-25T22:08:40.758Z,11.40
2022-12-25T22:13:01.231Z,11.40
2022-12-25T22:17:23.291Z,11.50
2022-12-25T22:21:26.016Z,11.50
2022-12-25T22:25:29.369Z,11.50
2022-12-25T22:29:32.308Z,11.50
2022-12-25T22:33:36.470Z,11.50
2022-12-25T22:37:39.687Z,11.50
2022-12-25T22:41:42.619Z,11.50
2022-12-25T22:45:45.382Z,11.50
2022-12-25T22:49:49.901Z,11.50
2022-12-25T22:53:52.790Z,11.50
2022-12-25T22:57:56.167Z,11.40
2022-12-25T23:01:59.090Z,11.40
2022-12-25T23:06:04.094Z,11.30
2022-12-25T23:10:08.115Z,11.30
2022-12-25T23:14:30.053Z,11.20
2022-12-25T23:18:50.809Z,11.10
2022-12-25T23:23:12.484Z,11.10
2022-12-25T23:27:15.517Z,11.00
2022-12-25T23:31:18.834Z,10.90
2022-12-25T23:35:23.699Z,10.90
2022-12-25T23:39:28.419Z,10.90
2022-12-25T23:43:31.753Z,10.90
2022-12-25T23:47:34.537Z,10.80
2022-12-25T23:51:38.047Z,10.80
2022-12-25T23:55:42.569Z,10.80
2022-12-25T23:59:45.412Z,10.80
